Time;durP1;ratioP1;P1;durP2;ratioP2;P2;SDS_P1;SDS_P2;PMS_P1;PMS_P2;Temp;Humidity;BMP_temperature;BMP_pressure;BME280_temperature;BME280_humidity;BME280_pressure;Samples;Min_cycle;Max_cycle;Signal;HPM_P1;HPM_P2
2021/07/26 00:02:03;;;;;;;;;6.75;6.25;;;;;23.07;56.64;100396.78;5056643;28;48373;-58
2021/07/26 00:04:29;;;;;;;;;7.00;6.50;;;;;23.04;56.54;100406.97;5053880;28;45455;-58
2021/07/26 00:06:55;;;;;;;;;7.50;7.50;;;;;23.00;56.76;100395.53;5057158;28;45812;-57
2021/07/26 00:09:20;;;;;;;;;6.25;6.25;;;;;22.99;56.83;100401.91;5058349;28;45464;-58
2021/07/26 00:11:46;;;;;;;;;7.75;7.75;;;;;22.95;57.04;100399.56;5058216;28;48292;-59
2021/07/26 00:14:11;;;;;;;;;9.25;8.25;;;;;22.93;56.69;100402.41;5058021;28;45438;-59
2021/07/26 00:16:37;;;;;;;;;5.75;5.75;;;;;22.93;57.01;100399.69;5057968;28;45403;-58
2021/07/26 00:19:02;;;;;;;;;7.75;7.75;;;;;22.97;57.20;100403.03;5058471;28;45682;-58
2021/07/26 00:21:28;;;;;;;;;7.75;7.75;;;;;22.97;57.07;100403.88;5057797;28;47582;-58
2021/07/26 00:23:53;;;;;;;;;9.00;7.50;;;;;22.99;56.83;100391.09;5056728;28;45921;-58
2021/07/26 00:26:19;;;;;;;;;6.25;6.25;;;;;23.01;56.83;100399.13;5058040;28;45311;-58
2021/07/26 00:28:44;;;;;;;;;8.25;8.25;;;;;23.00;56.50;100390.13;5057817;28;45619;-58
2021/07/26 00:31:10;;;;;;;;;7.75;7.75;;;;;22.99;57.00;100390.22;5057572;28;48311;-58
2021/07/26 00:34:22;;;;;;;;;11.75;8.00;;;;;22.98;57.07;100391.22;5058242;28;45619;-58
2021/07/26 00:36:50;;;;;;;;;7.00;7.00;;;;;22.97;57.08;100394.91;5053495;28;45418;-59
2021/07/26 00:39:19;;;;;;;;;7.00;6.00;;;;;22.96;56.89;100391.34;5044644;28;45531;-58
2021/07/26 00:41:45;;;;;;;;;8.25;8.25;;;;;22.95;57.01;100399.56;5057950;28;45476;-58
2021/07/26 00:44:11;;;;;;;;;10.25;8.75;;;;;22.95;56.81;100403.16;5056275;28;45571;-58
2021/07/26 00:46:37;;;;;;;;;14.25;14.25;;;;;22.92;56.82;100397.97;5070301;27;45347;-58
2021/07/26 00:49:07;;;;;;;;;14.00;12.50;;;;;22.92;56.85;100394.41;5077005;27;45440;-58
2021/07/26 00:51:32;;;;;;;;;14.25;13.25;;;;;22.89;56.78;100385.56;5077924;27;47338;-58
2021/07/26 00:53:59;;;;;;;;;13.50;13.50;;;;;22.88;56.93;100393.81;5078572;27;45406;-58
2021/07/26 00:56:25;;;;;;;;;12.75;11.25;;;;;22.86;56.24;100391.19;5081460;27;45605;-58
2021/07/26 00:58:51;;;;;;;;;13.25;11.75;;;;;22.86;56.95;100395.72;5080968;27;45702;-58
2021/07/26 01:01:17;;;;;;;;;15.50;14.50;;;;;22.83;56.69;100390.56;5073179;27;47588;-59
2021/07/26 01:03:43;;;;;;;;;17.50;17.00;;;;;22.82;56.60;100395.09;5080112;27;45333;-59
2021/07/26 01:06:10;;;;;;;;;18.25;17.50;;;;;22.81;56.88;100393.38;5081631;27;45795;-59
2021/07/26 01:08:36;;;;;;;;;22.75;21.25;;;;;22.79;56.30;100394.47;5080893;27;45519;-58
2021/07/26 01:11:05;;;;;;;;;18.50;17.25;;;;;22.79;56.51;100391.78;5081668;27;47193;-58
2021/07/26 01:13:31;;;;;;;;;21.00;21.00;;;;;22.79;56.38;100389.94;5080922;27;46414;-58
2021/07/26 01:15:57;;;;;;;;;19.50;19.00;;;;;22.79;56.64;100394.47;5081547;27;45456;-58
2021/07/26 01:18:27;;;;;;;;;14.50;14.50;;;;;22.79;56.88;100389.06;5081256;27;45433;-58
2021/07/26 01:21:14;;;;;;;;;14.50;14.25;;;;;22.77;56.64;100397.31;5062418;27;46938;-58
2021/07/26 01:23:42;;;;;;;;;15.00;15.00;;;;;22.76;56.93;100400.13;5061626;28;46205;-58
2021/07/26 01:26:10;;;;;;;;;15.00;14.00;;;;;22.74;57.46;100397.56;5062982;27;45402;-58
2021/07/26 01:28:39;;;;;;;;;15.25;13.25;;;;;22.74;57.14;100394.84;5080694;27;45408;-58
2021/07/26 01:31:05;;;;;;;;;14.50;12.75;;;;;22.73;56.63;100395.78;5080915;27;47251;-58
2021/07/26 01:33:32;;;;;;;;;14.25;14.00;;;;;22.73;56.76;100398.50;5080792;27;45483;-58
2021/07/26 01:35:58;;;;;;;;;15.00;14.00;;;;;22.73;56.97;100397.63;5080641;27;45413;-58
2021/07/26 01:38:24;;;;;;;;;10.67;10.67;;;;;22.69;56.93;100394.31;5071027;27;45302;-58
2021/07/26 01:40:53;;;;;;;;;12.75;11.75;;;;;22.67;56.21;100399.00;5074970;27;48314;-58
2021/07/26 01:43:20;;;;;;;;;10.00;9.00;;;;;22.65;56.25;100400.94;5080699;27;45337;-58
2021/07/26 01:45:58;;;;;;;;;11.75;9.75;;;;;22.63;56.47;100404.75;5075475;27;45476;-57
2021/07/26 01:48:34;;;;;;;;;11.00;9.33;;;;;22.59;56.44;100404.97;5079761;27;45849;-59
2021/07/26 01:51:04;;;;;;;;;10.50;10.50;;;;;22.56;56.61;100407.91;5079830;27;47467;-59
2021/07/26 01:53:30;;;;;;;;;14.33;10.00;;;;;22.53;56.47;100405.47;5080233;28;46080;-59
2021/07/26 01:55:56;;;;;;;;;12.25;11.75;;;;;22.53;56.62;100418.13;5080563;27;45460;-58
2021/07/26 01:58:22;;;;;;;;;13.25;12.75;;;;;22.50;56.42;100419.22;5062554;27;45358;-57
2021/07/26 02:00:48;;;;;;;;;10.00;8.75;;;;;22.48;56.22;100414.88;5087934;27;48664;-59
2021/07/26 02:03:13;;;;;;;;;10.00;9.33;;;;;22.46;56.21;100417.72;5074819;27;45305;-59
2021/07/26 02:05:39;;;;;;;;;9.67;9.00;;;;;22.42;55.93;100418.94;5080606;27;45422;-59
2021/07/26 02:08:04;;;;;;;;;10.00;10.00;;;;;22.41;56.46;100421.75;5080361;27;45774;-59
2021/07/26 02:10:30;;;;;;;;;11.75;11.75;;;;;22.38;56.17;100422.00;5080309;28;47351;-59
2021/07/26 02:12:58;;;;;;;;;12.50;12.25;;;;;22.33;56.31;100425.88;5079593;27;45453;-57
2021/07/26 02:15:24;;;;;;;;;13.75;12.00;;;;;22.32;56.37;100431.41;5080188;27;45560;-57
2021/07/26 02:17:50;;;;;;;;;8.75;8.25;;;;;22.28;56.44;100433.50;5080227;27;45467;-57
2021/07/26 02:20:16;;;;;;;;;12.00;12.00;;;;;22.27;56.16;100439.00;5079786;27;46205;-57
2021/07/26 02:22:44;;;;;;;;;13.50;13.50;;;;;22.21;56.17;100437.63;5079693;27;45547;-57
2021/07/26 02:25:10;;;;;;;;;15.75;14.50;;;;;22.19;56.38;100439.56;5080023;27;45346;-57
2021/07/26 02:27:36;;;;;;;;;17.25;14.50;;;;;22.18;56.45;100445.09;5079943;27;45322;-57
2021/07/26 02:30:01;;;;;;;;;13.33;12.33;;;;;22.15;57.16;100442.63;5079605;27;47559;-58
2021/07/26 02:32:27;;;;;;;;;14.75;13.50;;;;;22.13;56.78;100450.00;5072478;27;46562;-58
2021/07/26 02:34:52;;;;;;;;;11.67;11.67;;;;;22.09;57.05;100448.47;5061758;28;45405;-58
2021/07/26 02:37:18;;;;;;;;;11.50;11.25;;;;;22.06;57.20;100449.56;5079205;27;45245;-58
2021/07/26 02:39:43;;;;;;;;;16.75;13.25;;;;;22.03;57.03;100453.34;5067527;27;47214;-58
2021/07/26 02:42:08;;;;;;;;;13.75;11.75;;;;;22.01;57.42;100446.31;5079769;28;45346;-58
2021/07/26 02:44:35;;;;;;;;;13.50;12.00;;;;;21.98;57.08;100447.41;5079381;27;45488;-58
2021/07/26 02:47:01;;;;;;;;;12.50;12.50;;;;;21.98;57.42;100443.84;5073558;28;45668;-58
2021/07/26 02:49:26;;;;;;;;;13.75;12.75;;;;;21.97;57.08;100448.34;5044202;28;46886;-57
2021/07/26 02:51:52;;;;;;;;;13.33;12.67;;;;;21.95;57.68;100452.16;5079497;27;45451;-58
2021/07/26 02:54:17;;;;;;;;;11.25;11.25;;;;;21.94;57.11;100454.00;5079649;27;45472;-58
2021/07/26 02:56:43;;;;;;;;;13.00;12.00;;;;;21.92;57.59;100450.56;5079453;27;45231;-58
2021/07/26 02:59:09;;;;;;;;;14.25;13.25;;;;;21.89;57.80;100450.78;5079198;27;47928;-58
2021/07/26 03:01:34;;;;;;;;;13.00;12.25;;;;;21.86;57.82;100452.84;5060948;28;45687;-58
2021/07/26 03:04:01;;;;;;;;;14.00;13.25;;;;;21.81;57.83;100455.88;5079959;27;45345;-58
2021/07/26 03:06:27;;;;;;;;;12.25;12.25;;;;;21.76;57.69;100457.19;5079475;27;45733;-58
2021/07/26 03:08:52;;;;;;;;;13.00;12.25;;;;;21.73;58.08;100450.19;5078928;28;47908;-58
2021/07/26 03:11:18;;;;;;;;;11.25;11.25;;;;;21.73;58.17;100453.75;5079458;27;45207;-58
2021/07/26 03:13:47;;;;;;;;;13.00;11.00;;;;;21.72;57.49;100457.41;5061208;28;45453;-58
2021/07/26 03:16:14;;;;;;;;;14.00;12.50;;;;;21.71;57.74;100455.66;5078540;27;45453;-58
2021/07/26 03:18:40;;;;;;;;;11.00;11.00;;;;;21.70;57.60;100451.22;5078809;28;47719;-58
2021/07/26 03:21:06;;;;;;;;;9.50;9.50;;;;;21.70;57.90;100451.22;5078898;27;46059;-58
2021/07/26 03:23:33;;;;;;;;;13.75;13.75;;;;;21.70;58.04;100456.63;5060937;28;45438;-58
2021/07/26 03:25:59;;;;;;;;;13.00;11.50;;;;;21.69;57.74;100454.91;5079390;27;45484;-58
2021/07/26 03:28:24;;;;;;;;;18.75;15.00;;;;;21.70;58.18;100456.63;5079006;27;46310;-58
2021/07/26 03:30:50;;;;;;;;;15.00;13.75;;;;;21.69;57.83;100457.63;5078687;27;45337;-58
2021/07/26 03:33:16;;;;;;;;;12.25;11.00;;;;;21.69;57.94;100456.75;5079374;27;45441;-58
2021/07/26 03:35:41;;;;;;;;;14.25;13.75;;;;;21.68;58.42;100453.19;5078962;27;45456;-58
2021/07/26 03:38:07;;;;;;;;;13.67;12.00;;;;;21.71;58.71;100460.19;5071592;27;47300;-58
2021/07/26 03:40:33;;;;;;;;;14.33;12.67;;;;;21.73;58.38;100452.88;5074615;27;45577;-58
2021/07/26 03:42:59;;;;;;;;;13.33;13.33;;;;;21.76;58.43;100454.50;5060862;28;45488;-58
2021/07/26 03:45:24;;;;;;;;;13.67;13.00;;;;;21.77;57.96;100457.06;5073857;28;45592;-57
2021/07/26 03:47:51;;;;;;;;;13.67;13.00;;;;;21.78;58.09;100455.22;5077584;27;47405;-58
2021/07/26 03:50:18;;;;;;;;;17.33;15.67;;;;;21.81;58.35;100460.41;5060552;27;45571;-58
2021/07/26 03:52:52;;;;;;;;;16.50;16.50;;;;;21.83;58.29;100463.84;5078621;27;45637;-58
2021/07/26 03:55:22;;;;;;;;;14.00;14.00;;;;;21.84;58.33;100461.03;5078975;27;45286;-58
2021/07/26 03:57:49;;;;;;;;;14.50;14.50;;;;;21.88;57.91;100465.28;5078542;27;47521;-58
2021/07/26 04:00:16;;;;;;;;;18.25;17.00;;;;;21.90;58.24;100459.75;5078400;27;45651;-58
2021/07/26 04:02:43;;;;;;;;;15.75;14.00;;;;;21.90;58.23;100460.63;5069275;27;45631;-58
2021/07/26 04:05:17;;;;;;;;;14.50;14.25;;;;;21.91;57.96;100466.88;5078640;27;45325;-58
2021/07/26 04:07:46;;;;;;;;;19.50;18.25;;;;;21.93;58.50;100465.78;5078269;28;48232;-58
2021/07/26 04:10:12;;;;;;;;;15.67;15.67;;;;;21.95;58.44;100471.94;5078388;28;45278;-58
2021/07/26 04:12:40;;;;;;;;;16.00;14.75;;;;;21.99;57.94;100469.91;5060116;27;45342;-58
2021/07/26 04:15:10;;;;;;;;;13.67;13.67;;;;;22.00;58.29;100474.31;5060095;28;45449;-58
2021/07/26 04:17:36;;;;;;;;;15.75;15.25;;;;;22.01;57.91;100471.50;5078341;27;47540;-58
2021/07/26 04:20:03;;;;;;;;;14.33;12.33;;;;;22.02;57.80;100465.13;5078305;27;45480;-58
2021/07/26 04:22:29;;;;;;;;;15.33;14.67;;;;;22.02;58.07;100469.66;5060880;27;45706;-58
2021/07/26 04:24:54;;;;;;;;;15.50;13.75;;;;;22.03;58.26;100466.84;5078102;27;45351;-58
2021/07/26 04:27:20;;;;;;;;;13.00;12.00;;;;;22.02;58.01;100473.22;5078163;28;47260;-58
2021/07/26 04:29:45;;;;;;;;;13.00;12.00;;;;;22.03;58.13;100469.53;5080472;27;45687;-58
2021/07/26 04:32:12;;;;;;;;;14.50;14.50;;;;;22.04;57.97;100473.97;5081721;27;45692;-58
2021/07/26 04:34:37;;;;;;;;;14.67;13.67;;;;;22.04;58.26;100481.22;5081974;27;45323;-58
2021/07/26 04:37:03;;;;;;;;;14.33;13.67;;;;;22.04;57.89;100473.97;5081652;27;47290;-58
2021/07/26 04:39:28;;;;;;;;;15.25;14.00;;;;;22.05;57.66;100469.44;5069082;27;45893;-58
2021/07/26 04:41:54;;;;;;;;;18.00;17.00;;;;;22.05;57.67;100477.53;5063724;28;45419;-58
2021/07/26 04:44:19;;;;;;;;;14.00;13.67;;;;;22.06;57.70;100481.13;5081639;27;45379;-58
2021/07/26 04:46:44;;;;;;;;;13.67;13.00;;;;;22.06;58.19;100473.03;5076776;27;47091;-58
2021/07/26 04:49:10;;;;;;;;;12.33;10.67;;;;;22.06;57.67;100475.72;5080174;27;45609;-58
2021/07/26 04:51:36;;;;;;;;;14.00;13.33;;;;;22.08;58.19;100484.59;5081801;27;45409;-58
2021/07/26 04:54:02;;;;;;;;;12.00;11.00;;;;;22.11;57.70;100478.97;5081680;27;45358;-58
2021/07/26 04:56:27;;;;;;;;;14.00;14.00;;;;;22.13;57.99;100477.88;5081289;27;47732;-58
2021/07/26 04:58:53;;;;;;;;;12.00;11.00;;;;;22.15;58.05;100477.75;5062878;28;45378;-58
2021/07/26 05:01:18;;;;;;;;;13.67;13.00;;;;;22.16;57.91;100483.06;5073334;27;45634;-58
2021/07/26 05:03:44;;;;;;;;;12.75;12.75;;;;;22.19;57.63;100481.97;5081343;27;45631;-58
2021/07/26 05:06:09;;;;;;;;;13.33;13.00;;;;;22.19;57.52;100485.53;5063145;28;47496;-58
2021/07/26 05:08:35;;;;;;;;;12.33;12.33;;;;;22.19;57.89;100498.19;5081167;27;45427;-58
2021/07/26 05:11:01;;;;;;;;;10.00;10.00;;;;;22.19;57.77;100498.19;5081437;27;45353;-58
2021/07/26 05:13:26;;;;;;;;;12.67;11.00;;;;;22.19;58.13;100498.19;5081061;27;45480;-58
2021/07/26 05:15:52;;;;;;;;;11.33;11.33;;;;;22.21;57.62;100501.63;5081297;27;47423;-58
2021/07/26 05:18:17;;;;;;;;;9.67;9.67;;;;;22.22;57.76;100501.50;5081352;27;45373;-58
2021/07/26 05:20:43;;;;;;;;;11.33;11.33;;;;;22.22;57.79;100498.81;5081303;27;45279;-58
2021/07/26 05:23:09;;;;;;;;;9.67;9.67;;;;;22.24;57.71;100501.41;5081539;27;45485;-58
2021/07/26 05:25:36;;;;;;;;;10.33;9.00;;;;;22.23;57.29;100495.16;5081266;27;48627;-58
2021/07/26 05:28:01;;;;;;;;;11.33;10.67;;;;;22.25;57.81;100504.00;5080974;27;45317;-58
2021/07/26 05:30:27;;;;;;;;;9.33;9.00;;;;;22.26;57.41;100497.63;5080828;27;45451;-58
2021/07/26 05:32:53;;;;;;;;;8.00;8.00;;;;;22.27;57.80;100502.06;5062515;28;45803;-58
2021/07/26 05:35:20;;;;;;;;;11.67;10.33;;;;;22.27;57.32;100501.19;5080811;27;48067;-58
2021/07/26 05:37:45;;;;;;;;;12.33;9.67;;;;;22.28;57.67;100503.78;5076000;27;45479;-58
2021/07/26 05:40:12;;;;;;;;;9.33;9.33;;;;;22.29;57.50;100510.91;5073218;27;45286;-58
2021/07/26 05:42:38;;;;;;;;;10.00;10.00;;;;;22.31;57.97;100499.97;5080791;27;45381;-58
2021/07/26 05:45:04;;;;;;;;;10.67;9.33;;;;;22.35;57.98;100503.31;5077605;27;47944;-58
2021/07/26 05:47:31;;;;;;;;;12.00;11.00;;;;;22.35;57.33;100504.16;5078019;27;45882;-58
2021/07/26 05:49:56;;;;;;;;;10.00;9.00;;;;;22.35;57.51;100506.88;5080924;27;45786;-58
2021/07/26 05:52:22;;;;;;;;;12.00;12.00;;;;;22.36;57.95;100500.53;5080511;27;45314;-58
2021/07/26 05:54:47;;;;;;;;;9.00;8.67;;;;;22.39;57.92;100499.41;5062072;27;47338;-58
2021/07/26 05:57:15;;;;;;;;;11.00;9.33;;;;;22.42;57.43;100505.44;5062354;28;45582;-58
2021/07/26 05:59:43;;;;;;;;;11.33;9.67;;;;;22.45;57.37;100501.66;5062338;28;45414;-58
2021/07/26 06:02:09;;;;;;;;;7.00;7.00;;;;;22.45;57.57;100509.75;5070412;27;45650;-57
2021/07/26 06:04:34;;;;;;;;;9.00;9.00;;;;;22.42;57.30;100500.03;5079939;27;47379;-58
2021/07/26 06:07:00;;;;;;;;;10.33;10.33;;;;;22.42;57.29;100502.75;5080255;27;45824;-58
2021/07/26 06:09:26;;;;;;;;;9.67;8.00;;;;;22.45;57.21;100502.50;5080131;27;45472;-58
2021/07/26 06:11:53;;;;;;;;;10.00;10.00;;;;;22.48;57.67;100504.97;5080444;27;45379;-58
2021/07/26 06:14:20;;;;;;;;;8.33;8.33;;;;;22.50;57.43;100508.47;5079993;27;48170;-58
2021/07/26 06:16:51;;;;;;;;;11.00;11.00;;;;;22.54;57.34;100509.94;5079946;28;45448;-58
2021/07/26 06:19:18;;;;;;;;;10.67;8.33;;;;;22.55;57.65;100506.25;5080549;27;45300;-58
2021/07/26 06:21:54;;;;;;;;;11.00;11.00;;;;;22.56;57.50;100507.13;5080354;27;45347;-58
2021/07/26 06:24:21;;;;;;;;;10.00;9.67;;;;;22.56;56.83;100513.41;5061455;28;46425;-59
2021/07/26 06:26:47;;;;;;;;;10.50;10.00;;;;;22.55;57.21;100513.50;5079735;27;45538;-58
2021/07/26 06:29:13;;;;;;;;;12.00;9.75;;;;;22.56;57.21;100521.50;5079741;27;45314;-58
2021/07/26 06:31:39;;;;;;;;;11.00;10.00;;;;;22.57;57.54;100514.25;5061934;28;45774;-58
2021/07/26 06:34:06;;;;;;;;;10.75;9.50;;;;;22.56;57.06;100520.66;5079568;27;47504;-58
2021/07/26 06:36:31;;;;;;;;;11.25;11.25;;;;;22.57;57.25;100519.66;5079999;28;45668;-58
2021/07/26 06:38:57;;;;;;;;;13.00;11.75;;;;;22.58;57.09;100518.69;5065508;27;45364;-58
2021/07/26 06:41:23;;;;;;;;;12.33;11.33;;;;;22.57;56.88;100525.06;5080454;27;45298;-59
2021/07/26 06:43:52;;;;;;;;;9.25;9.25;;;;;22.55;56.98;100521.63;5079625;27;47003;-57
2021/07/26 06:46:18;;;;;;;;;12.50;12.50;;;;;22.54;56.94;100526.19;5071908;28;45872;-58
2021/07/26 06:48:44;;;;;;;;;12.50;11.25;;;;;22.53;57.07;100524.44;5078705;28;45359;-58
2021/07/26 06:51:09;;;;;;;;;12.00;11.00;;;;;22.52;57.47;100527.28;5079544;27;45573;-58
2021/07/26 06:53:35;;;;;;;;;12.00;10.75;;;;;22.52;57.12;100527.28;5061034;28;46511;-60
2021/07/26 06:56:04;;;;;;;;;10.67;9.00;;;;;22.53;56.98;100531.69;5079795;28;45651;-59
2021/07/26 06:58:31;;;;;;;;;12.00;11.25;;;;;22.56;57.40;100532.31;5079178;27;45361;-59
2021/07/26 07:01:11;;;;;;;;;8.75;8.75;;;;;22.57;57.18;100535.91;5074284;27;45368;-59
2021/07/26 07:03:40;;;;;;;;;10.00;8.50;;;;;22.56;57.65;100529.63;5076791;27;47600;-59
2021/07/26 07:06:09;;;;;;;;;17.25;12.75;;;;;22.56;56.98;100539.59;5061186;28;45688;-59
2021/07/26 07:08:38;;;;;;;;;11.50;11.50;;;;;22.55;57.15;100537.84;5060868;28;45910;-60
2021/07/26 07:11:14;;;;;;;;;12.00;12.00;;;;;22.57;57.20;100530.50;5079813;27;45417;-59
2021/07/26 07:13:48;;;;;;;;;10.00;10.00;;;;;22.60;57.47;100538.38;5078572;27;45620;-59
2021/07/26 07:16:17;;;;;;;;;11.25;10.00;;;;;22.61;57.39;100538.28;5079633;28;45510;-59
2021/07/26 07:18:44;;;;;;;;;10.50;10.50;;;;;22.61;57.83;100548.19;5079530;27;45496;-59
2021/07/26 07:21:16;;;;;;;;;13.00;10.00;;;;;22.60;58.09;100544.63;5080122;27;45580;-59
2021/07/26 07:23:41;;;;;;;;;11.75;11.25;;;;;22.60;58.39;100549.19;5061097;28;47397;-59
2021/07/26 07:26:07;;;;;;;;;10.00;9.00;;;;;22.59;58.93;100553.72;5079580;27;45774;-59
2021/07/26 07:28:32;;;;;;;;;8.25;8.25;;;;;22.58;58.90;100548.44;5079648;27;45344;-59
2021/07/26 07:30:57;;;;;;;;;10.50;8.00;;;;;22.54;59.01;100552.34;5091929;27;45468;-59
2021/07/26 07:33:24;;;;;;;;;11.00;11.00;;;;;22.52;59.41;100566.00;5079261;27;48256;-59
2021/07/26 07:35:49;;;;;;;;;9.25;8.25;;;;;22.48;59.60;100564.47;5061196;27;45710;-60
2021/07/26 07:38:15;;;;;;;;;12.67;10.67;;;;;22.44;59.81;100560.28;5071545;27;45304;-59
2021/07/26 07:40:40;;;;;;;;;9.75;9.75;;;;;22.41;59.43;100568.63;5057781;27;45538;-59
2021/07/26 07:43:06;;;;;;;;;11.50;11.50;;;;;22.38;59.65;100568.00;5079661;28;48023;-59
2021/07/26 07:45:32;;;;;;;;;9.75;9.75;;;;;22.36;59.72;100561.81;5056451;27;45874;-59
2021/07/26 07:47:58;;;;;;;;;14.00;11.25;;;;;22.31;59.83;100560.31;5077998;28;45302;-59
2021/07/26 07:50:24;;;;;;;;;11.00;9.75;;;;;22.29;60.00;100567.69;5079087;27;45282;-59
2021/07/26 07:52:50;;;;;;;;;15.50;15.50;;;;;22.30;60.22;100569.41;5079312;28;48555;-59
2021/07/26 07:55:15;;;;;;;;;15.25;12.75;;;;;22.30;60.45;100566.69;5078866;27;45815;-57
2021/07/26 07:57:41;;;;;;;;;18.50;13.75;;;;;22.34;60.68;100564.63;5079033;27;45318;-58
2021/07/26 08:00:12;;;;;;;;;16.00;14.00;;;;;22.37;60.28;100567.13;5078799;27;45377;-57
2021/07/26 08:02:37;;;;;;;;;14.00;14.00;;;;;22.42;60.10;100570.34;5060797;28;45420;-60
2021/07/26 08:05:03;;;;;;;;;14.75;13.25;;;;;22.52;60.34;100574.13;5082959;27;45433;-58
2021/07/26 08:07:29;;;;;;;;;17.25;16.25;;;;;22.59;59.68;100575.38;5061331;28;45426;-58
2021/07/26 08:09:54;;;;;;;;;14.25;14.25;;;;;22.66;60.34;100574.94;5079768;27;45693;-59
2021/07/26 08:12:20;;;;;;;;;11.75;11.00;;;;;22.68;59.99;100576.53;5082632;27;47311;-59
2021/07/26 08:14:45;;;;;;;;;12.75;12.00;;;;;22.70;60.05;100565.59;5081664;27;45329;-59
2021/07/26 08:17:11;;;;;;;;;14.50;14.50;;;;;22.74;59.81;100570.69;5064188;28;45536;-58
2021/07/26 08:19:37;;;;;;;;;16.25;16.25;;;;;22.75;59.68;100574.25;5082643;27;45415;-58
2021/07/26 08:22:02;;;;;;;;;13.50;13.00;;;;;22.75;59.52;100579.66;5082220;27;46141;-58
2021/07/26 08:24:28;;;;;;;;;14.50;14.25;;;;;22.75;59.48;100579.66;5082530;27;45365;-58
2021/07/26 08:26:53;;;;;;;;;19.25;16.75;;;;;22.80;59.35;100578.34;5082560;27;45457;-59
2021/07/26 08:29:19;;;;;;;;;15.75;15.75;;;;;22.86;59.58;100588.72;5082639;27;45224;-58
2021/07/26 08:31:44;;;;;;;;;17.75;17.25;;;;;22.91;59.13;100588.38;5064246;28;45658;-58
2021/07/26 08:34:10;;;;;;;;;18.75;16.50;;;;;22.97;59.10;100590.63;5082140;27;45412;-58
2021/07/26 08:36:35;;;;;;;;;18.75;14.75;;;;;23.06;59.32;100592.63;5060574;28;45311;-58
2021/07/26 08:39:01;;;;;;;;;15.50;15.50;;;;;23.14;58.82;100589.38;5066189;27;45378;-59
2021/07/26 08:41:27;;;;;;;;;21.25;15.00;;;;;23.16;58.63;100587.41;5082172;28;47260;-59
2021/07/26 08:43:53;;;;;;;;;13.50;13.50;;;;;23.14;58.49;100587.50;5063488;27;45306;-59
2021/07/26 08:46:19;;;;;;;;;18.00;16.00;;;;;23.17;58.71;100586.41;5063648;28;45436;-58
2021/07/26 08:48:50;;;;;;;;;17.00;16.00;;;;;23.20;58.88;100583.47;5080634;27;45394;-59
2021/07/26 08:51:18;;;;;;;;;17.00;15.00;;;;;23.24;58.85;100579.53;5081721;27;45429;-58
2021/07/26 08:53:47;;;;;;;;;18.75;16.75;;;;;23.28;58.64;100588.31;5081827;27;45869;-59
2021/07/26 08:56:17;;;;;;;;;15.50;13.75;;;;;23.30;58.32;100583.63;5063764;28;45584;-59
2021/07/26 08:58:43;;;;;;;;;13.00;13.00;;;;;23.34;58.45;100590.53;5081505;27;45646;-59
2021/07/26 09:01:12;;;;;;;;;14.75;14.00;;;;;23.35;58.39;100593.13;5074478;27;47719;-59
2021/07/26 09:03:38;;;;;;;;;15.75;13.75;;;;;23.40;58.39;100595.50;5062127;28;45495;-58
2021/07/26 09:06:03;;;;;;;;;16.00;13.00;;;;;23.46;58.01;100595.00;5081663;27;46119;-59
2021/07/26 09:08:37;;;;;;;;;15.25;15.25;;;;;23.48;57.97;100601.16;5082427;27;45522;-58
2021/07/26 09:11:04;;;;;;;;;11.25;11.25;;;;;23.47;57.69;100597.59;5063439;28;45315;-58
2021/07/26 09:13:44;;;;;;;;;14.00;13.50;;;;;23.49;57.83;100592.03;5081073;27;46273;-59
2021/07/26 09:16:17;;;;;;;;;12.75;12.00;;;;;23.59;57.56;100595.81;5080977;27;45411;-59
2021/07/26 09:18:43;;;;;;;;;13.75;12.75;;;;;23.71;57.28;100599.41;5081410;27;45382;-59
2021/07/26 09:21:09;;;;;;;;;11.75;11.00;;;;;23.83;57.07;100597.56;5045202;27;47442;-58
2021/07/26 09:23:38;;;;;;;;;17.50;15.00;;;;;23.95;57.08;100594.75;5081983;27;45602;-59
2021/07/26 09:26:24;;;;;;;;;18.00;15.50;;;;;24.11;56.69;100593.53;5081316;27;45508;-57
2021/07/26 09:28:49;;;;;;;;;10.25;10.00;;;;;24.15;56.61;100600.47;5081759;27;45833;-59
2021/07/26 09:31:15;;;;;;;;;12.67;11.00;;;;;24.16;56.02;100597.63;5063704;28;45864;-59
2021/07/26 09:33:42;;;;;;;;;9.75;9.75;;;;;24.18;55.70;100602.91;5082073;27;45456;-59
2021/07/26 09:36:08;;;;;;;;;13.00;11.25;;;;;24.18;55.79;100592.06;5060798;28;45401;-59
2021/07/26 09:38:37;;;;;;;;;12.00;12.00;;;;;24.10;55.64;100592.66;5062180;27;45283;-59
2021/07/26 09:41:05;;;;;;;;;11.00;10.00;;;;;23.98;55.67;100597.22;5080154;27;46337;-59
2021/07/26 09:43:31;;;;;;;;;13.50;12.00;;;;;23.88;55.58;100604.34;5081590;27;45452;-59
2021/07/26 09:45:59;;;;;;;;;15.25;14.00;;;;;23.80;56.05;100608.66;5076902;27;45412;-59
2021/07/26 09:48:26;;;;;;;;;14.25;14.25;;;;;23.72;56.61;100618.25;5079380;27;45751;-59
2021/07/26 09:50:54;;;;;;;;;15.25;15.25;;;;;23.66;57.42;100607.03;5079364;27;45427;-59
2021/07/26 09:53:21;;;;;;;;;11.00;11.00;;;;;23.62;57.74;100609.09;5080322;27;45457;-59
2021/07/26 09:55:51;;;;;;;;;13.25;13.25;;;;;23.61;57.81;100612.78;5080859;27;45412;-59
2021/07/26 09:58:20;;;;;;;;;11.25;10.50;;;;;23.62;58.21;100610.94;5080826;27;45694;-59
2021/07/26 10:00:46;;;;;;;;;14.75;13.00;;;;;23.62;58.22;100609.09;5076567;27;46093;-59
2021/07/26 10:03:14;;;;;;;;;13.50;13.50;;;;;23.66;58.40;100616.03;5075944;27;45342;-59
2021/07/26 10:05:42;;;;;;;;;13.50;11.00;;;;;23.70;58.48;100611.22;5062671;28;45488;-59
2021/07/26 10:08:09;;;;;;;;;13.75;12.75;;;;;23.74;58.11;100619.00;5062344;27;45530;-59
2021/07/26 10:10:39;;;;;;;;;11.50;10.50;;;;;23.81;58.04;100615.81;5062081;28;45482;-59
2021/07/26 10:13:07;;;;;;;;;14.50;13.50;;;;;23.89;58.25;100618.78;5079967;27;45322;-58
2021/07/26 10:15:33;;;;;;;;;16.75;14.50;;;;;23.96;58.40;100611.88;5080541;27;45366;-58
2021/07/26 10:17:59;;;;;;;;;14.25;14.25;;;;;24.05;58.35;100619.31;5080540;27;45287;-58
2021/07/26 10:20:27;;;;;;;;;13.50;13.00;;;;;24.11;58.03;100615.22;5080199;27;46292;-58
2021/07/26 10:22:58;;;;;;;;;14.50;13.25;;;;;24.13;57.87;100614.09;5079651;27;45901;-57
2021/07/26 10:25:31;;;;;;;;;13.25;13.25;;;;;24.18;57.86;100611.91;5062247;28;45353;-58
2021/07/26 10:28:00;;;;;;;;;15.00;15.00;;;;;24.23;57.79;100615.09;5080457;27;45408;-59
2021/07/26 10:30:36;;;;;;;;;14.00;14.00;;;;;24.31;57.96;100612.69;5080246;27;47885;-59
2021/07/26 10:33:03;;;;;;;;;17.75;16.75;;;;;24.38;57.40;100610.31;5079804;27;46114;-60
2021/07/26 10:35:37;;;;;;;;;14.75;14.50;;;;;24.40;57.11;100612.94;5080085;27;45562;-57
2021/07/26 10:38:04;;;;;;;;;26.00;24.75;;;;;24.41;56.91;100614.66;5049729;28;45675;-57
2021/07/26 10:40:32;;;;;;;;;25.50;23.00;;;;;24.41;57.36;100623.66;5078747;27;47809;-58
2021/07/26 10:43:03;;;;;;;;;23.50;23.50;;;;;24.47;57.43;100611.44;5079497;28;45281;-59
2021/07/26 10:45:31;;;;;;;;;22.50;19.00;;;;;24.55;57.10;100606.25;5056556;28;45381;-58
2021/07/26 10:48:22;;;;;;;;;18.25;18.25;;;;;24.65;57.06;100615.38;5078701;27;45317;-58
2021/07/26 10:50:49;;;;;;;;;17.50;17.50;;;;;24.69;56.80;100611.41;5078888;27;48495;-58
2021/07/26 10:53:36;;;;;;;;;18.50;18.50;;;;;24.73;55.99;100617.44;5079614;27;45339;-58
2021/07/26 10:56:09;;;;;;;;;12.67;12.67;;;;;24.74;55.91;100611.00;5058318;28;45750;-59
2021/07/26 10:58:37;;;;;;;;;18.25;18.00;;;;;24.72;56.00;100607.56;5076031;28;45283;-58
2021/07/26 11:01:22;;;;;;;;;15.25;15.25;;;;;24.68;56.01;100606.09;5055397;28;46975;-58
2021/07/26 11:03:49;;;;;;;;;13.75;12.50;;;;;24.71;55.70;100608.56;5079121;28;45360;-58
2021/07/26 11:06:40;;;;;;;;;12.50;12.50;;;;;24.74;55.01;100603.72;5061594;28;45719;-58
2021/07/26 11:09:20;;;;;;;;;13.67;13.67;;;;;24.73;55.13;100591.16;5079861;28;45332;-58
2021/07/26 11:11:47;;;;;;;;;13.50;13.50;;;;;24.69;54.99;100603.25;5079220;27;45699;-58
2021/07/26 11:14:14;;;;;;;;;16.00;13.00;;;;;24.64;55.12;100603.63;5061373;28;45404;-58